sensor_id;sensor_type;location;lat;lon;timestamp;P1;durP1;ratioP1;P2;durP2;ratioP2
673;SDS011;319;48.764;9.174;2022-07-05T00:01:20;0.90;;;0.90;;
673;SDS011;319;48.764;9.174;2022-07-05T00:03:47;0.80;;;0.80;;
673;SDS011;319;48.764;9.174;2022-07-05T00:06:14;0.70;;;0.70;;
673;SDS011;319;48.764;9.174;2022-07-05T00:08:40;0.80;;;0.80;;
673;SDS011;319;48.764;9.174;2022-07-05T00:11:08;0.80;;;0.80;;
673;SDS011;319;48.764;9.174;2022-07-05T00:13:36;0.87;;;0.87;;
673;SDS011;319;48.764;9.174;2022-07-05T00:16:02;0.80;;;0.80;;
673;SDS011;319;48.764;9.174;2022-07-05T00:18:30;0.80;;;0.80;;
673;SDS011;319;48.764;9.174;2022-07-05T00:20:56;0.80;;;0.80;;
673;SDS011;319;48.764;9.174;2022-07-05T00:23:23;0.80;;;0.80;;
673;SDS011;319;48.764;9.174;2022-07-05T00:25:50;0.80;;;0.80;;
673;SDS011;319;48.764;9.174;2022-07-05T00:28:17;0.80;;;0.80;;
673;SDS011;319;48.764;9.174;2022-07-05T00:30:45;0.80;;;0.80;;
673;SDS011;319;48.764;9.174;2022-07-05T00:33:12;0.80;;;0.80;;
673;SDS011;319;48.764;9.174;2022-07-05T00:35:39;0.90;;;0.90;;
673;SDS011;319;48.764;9.174;2022-07-05T00:38:05;0.80;;;0.80;;
673;SDS011;319;48.764;9.174;2022-07-05T00:40:32;0.80;;;0.80;;
673;SDS011;319;48.764;9.174;2022-07-05T00:42:59;0.90;;;0.90;;
673;SDS011;319;48.764;9.174;2022-07-05T00:45:26;0.87;;;0.87;;
673;SDS011;319;48.764;9.174;2022-07-05T00:47:54;0.90;;;0.90;;
673;SDS011;319;48.764;9.174;2022-07-05T00:50:21;0.80;;;0.80;;
673;SDS011;319;48.764;9.174;2022-07-05T00:52:47;1.20;;;1.20;;
673;SDS011;319;48.764;9.174;2022-07-05T00:55:15;1.93;;;1.93;;
673;SDS011;319;48.764;9.174;2022-07-05T00:57:42;2.50;;;2.50;;
673;SDS011;319;48.764;9.174;2022-07-05T01:00:10;3.80;;;3.70;;
673;SDS011;319;48.764;9.174;2022-07-05T01:02:37;2.73;;;2.63;;
673;SDS011;319;48.764;9.174;2022-07-05T01:05:05;2.20;;;2.20;;
673;SDS011;319;48.764;9.174;2022-07-05T01:07:32;3.67;;;3.57;;
673;SDS011;319;48.764;9.174;2022-07-05T01:10:01;2.23;;;2.23;;
673;SDS011;319;48.764;9.174;2022-07-05T01:12:28;1.30;;;1.30;;
673;SDS011;319;48.764;9.174;2022-07-05T01:14:55;1.63;;;1.63;;
673;SDS011;319;48.764;9.174;2022-07-05T01:17:23;2.33;;;2.33;;
673;SDS011;319;48.764;9.174;2022-07-05T01:19:50;3.27;;;3.17;;
673;SDS011;319;48.764;9.174;2022-07-05T01:22:19;3.60;;;3.50;;
673;SDS011;319;48.764;9.174;2022-07-05T01:24:49;2.63;;;2.60;;
673;SDS011;319;48.764;9.174;2022-07-05T01:27:16;1.30;;;1.30;;
673;SDS011;319;48.764;9.174;2022-07-05T01:29:44;1.50;;;1.50;;
673;SDS011;319;48.764;9.174;2022-07-05T01:32:11;1.67;;;1.67;;
673;SDS011;319;48.764;9.174;2022-07-05T01:34:39;1.70;;;1.70;;
673;SDS011;319;48.764;9.174;2022-07-05T01:37:07;1.87;;;1.87;;
673;SDS011;319;48.764;9.174;2022-07-05T01:39:34;1.90;;;1.90;;
673;SDS011;319;48.764;9.174;2022-07-05T01:42:03;0.80;;;0.80;;
673;SDS011;319;48.764;9.174;2022-07-05T01:44:30;1.00;;;1.00;;
673;SDS011;319;48.764;9.174;2022-07-05T01:46:58;1.20;;;1.20;;
673;SDS011;319;48.764;9.174;2022-07-05T01:49:29;1.20;;;1.20;;
673;SDS011;319;48.764;9.174;2022-07-05T01:52:01;1.40;;;1.40;;
673;SDS011;319;48.764;9.174;2022-07-05T01:54:33;0.90;;;0.90;;
673;SDS011;319;48.764;9.174;2022-07-05T01:57:00;0.90;;;0.90;;
673;SDS011;319;48.764;9.174;2022-07-05T01:59:28;0.80;;;0.80;;
673;SDS011;319;48.764;9.174;2022-07-05T02:01:55;0.80;;;0.80;;
673;SDS011;319;48.764;9.174;2022-07-05T02:04:23;0.80;;;0.80;;
673;SDS011;319;48.764;9.174;2022-07-05T02:06:51;0.90;;;0.90;;
673;SDS011;319;48.764;9.174;2022-07-05T02:09:18;0.80;;;0.80;;
673;SDS011;319;48.764;9.174;2022-07-05T02:11:44;0.80;;;0.80;;
673;SDS011;319;48.764;9.174;2022-07-05T02:14:11;0.90;;;0.90;;
673;SDS011;319;48.764;9.174;2022-07-05T02:16:39;1.67;;;1.67;;
673;SDS011;319;48.764;9.174;2022-07-05T02:19:06;1.70;;;1.70;;
673;SDS011;319;48.764;9.174;2022-07-05T02:21:33;0.90;;;0.90;;
673;SDS011;319;48.764;9.174;2022-07-05T02:23:59;0.70;;;0.70;;
673;SDS011;319;48.764;9.174;2022-07-05T02:26:26;0.80;;;0.80;;
673;SDS011;319;48.764;9.174;2022-07-05T02:28:53;0.80;;;0.80;;
673;SDS011;319;48.764;9.174;2022-07-05T02:31:20;0.80;;;0.80;;
673;SDS011;319;48.764;9.174;2022-07-05T02:33:48;0.80;;;0.80;;
673;SDS011;319;48.764;9.174;2022-07-05T02:36:15;0.80;;;0.80;;
673;SDS011;319;48.764;9.174;2022-07-05T02:38:41;0.80;;;0.80;;
673;SDS011;319;48.764;9.174;2022-07-05T02:41:10;0.90;;;0.90;;
673;SDS011;319;48.764;9.174;2022-07-05T02:43:37;0.80;;;0.80;;
673;SDS011;319;48.764;9.174;2022-07-05T02:46:05;0.80;;;0.80;;
673;SDS011;319;48.764;9.174;2022-07-05T02:48:34;0.80;;;0.80;;
673;SDS011;319;48.764;9.174;2022-07-05T02:51:03;0.80;;;0.80;;
673;SDS011;319;48.764;9.174;2022-07-05T02:53:31;0.80;;;0.80;;
673;SDS011;319;48.764;9.174;2022-07-05T02:55:59;0.80;;;0.80;;
673;SDS011;319;48.764;9.174;2022-07-05T02:58:26;0.80;;;0.80;;
673;SDS011;319;48.764;9.174;2022-07-05T03:00:53;0.90;;;0.90;;
673;SDS011;319;48.764;9.174;2022-07-05T03:03:20;0.80;;;0.80;;
673;SDS011;319;48.764;9.174;2022-07-05T03:05:47;0.80;;;0.80;;
673;SDS011;319;48.764;9.174;2022-07-05T03:08:15;0.80;;;0.80;;
673;SDS011;319;48.764;9.174;2022-07-05T03:10:42;0.77;;;0.77;;
673;SDS011;319;48.764;9.174;2022-07-05T03:13:09;0.80;;;0.80;;
673;SDS011;319;48.764;9.174;2022-07-05T03:15:35;0.80;;;0.80;;
673;SDS011;319;48.764;9.174;2022-07-05T03:18:02;0.80;;;0.80;;
673;SDS011;319;48.764;9.174;2022-07-05T03:20:29;0.80;;;0.80;;
673;SDS011;319;48.764;9.174;2022-07-05T03:22:56;0.80;;;0.80;;
673;SDS011;319;48.764;9.174;2022-07-05T03:25:24;0.73;;;0.73;;
673;SDS011;319;48.764;9.174;2022-07-05T03:27:51;1.00;;;1.00;;
673;SDS011;319;48.764;9.174;2022-07-05T03:30:18;0.80;;;0.80;;
673;SDS011;319;48.764;9.174;2022-07-05T03:32:44;0.80;;;0.80;;
673;SDS011;319;48.764;9.174;2022-07-05T03:35:11;0.80;;;0.80;;
673;SDS011;319;48.764;9.174;2022-07-05T03:37:38;0.80;;;0.80;;
673;SDS011;319;48.764;9.174;2022-07-05T03:40:05;0.80;;;0.80;;
673;SDS011;319;48.764;9.174;2022-07-05T03:42:34;0.80;;;0.80;;
673;SDS011;319;48.764;9.174;2022-07-05T03:45:01;0.70;;;0.70;;
673;SDS011;319;48.764;9.174;2022-07-05T03:47:27;0.70;;;0.70;;
673;SDS011;319;48.764;9.174;2022-07-05T03:49:54;1.00;;;1.00;;
673;SDS011;319;48.764;9.174;2022-07-05T03:52:21;1.07;;;1.07;;
673;SDS011;319;48.764;9.174;2022-07-05T03:54:48;1.00;;;1.00;;
673;SDS011;319;48.764;9.174;2022-07-05T03:57:14;1.00;;;1.00;;
673;SDS011;319;48.764;9.174;2022-07-05T03:59:43;1.10;;;1.10;;
673;SDS011;319;48.764;9.174;2022-07-05T04:02:10;1.10;;;1.10;;
673;SDS011;319;48.764;9.174;2022-07-05T04:04:37;1.10;;;1.10;;
673;SDS011;319;48.764;9.174;2022-07-05T04:07:03;1.10;;;1.10;;
673;SDS011;319;48.764;9.174;2022-07-05T04:09:30;1.10;;;1.10;;
673;SDS011;319;48.764;9.174;2022-07-05T04:11:57;1.20;;;1.20;;
673;SDS011;319;48.764;9.174;2022-07-05T04:14:24;1.10;;;1.10;;
673;SDS011;319;48.764;9.174;2022-07-05T04:16:52;1.30;;;1.30;;
673;SDS011;319;48.764;9.174;2022-07-05T04:19:18;1.30;;;1.30;;
673;SDS011;319;48.764;9.174;2022-07-05T04:21:45;1.20;;;1.20;;
673;SDS011;319;48.764;9.174;2022-07-05T04:24:12;1.20;;;1.20;;
673;SDS011;319;48.764;9.174;2022-07-05T04:26:38;1.10;;;1.10;;
673;SDS011;319;48.764;9.174;2022-07-05T04:29:05;1.10;;;1.10;;
673;SDS011;319;48.764;9.174;2022-07-05T04:31:32;1.20;;;1.20;;
673;SDS011;319;48.764;9.174;2022-07-05T04:34:01;1.20;;;1.20;;
673;SDS011;319;48.764;9.174;2022-07-05T04:36:28;1.30;;;1.30;;
673;SDS011;319;48.764;9.174;2022-07-05T04:38:55;1.20;;;1.20;;
673;SDS011;319;48.764;9.174;2022-07-05T04:41:21;1.30;;;1.30;;
673;SDS011;319;48.764;9.174;2022-07-05T04:43:48;1.20;;;1.20;;
673;SDS011;319;48.764;9.174;2022-07-05T04:46:15;1.30;;;1.30;;
673;SDS011;319;48.764;9.174;2022-07-05T04:48:42;1.20;;;1.20;;
673;SDS011;319;48.764;9.174;2022-07-05T04:51:10;1.10;;;1.10;;
673;SDS011;319;48.764;9.174;2022-07-05T04:53:36;3.70;;;3.60;;
673;SDS011;319;48.764;9.174;2022-07-05T04:56:03;3.37;;;3.27;;
673;SDS011;319;48.764;9.174;2022-07-05T04:58:31;1.00;;;1.00;;
673;SDS011;319;48.764;9.174;2022-07-05T05:00:58;1.10;;;1.10;;
673;SDS011;319;48.764;9.174;2022-07-05T05:03:24;1.00;;;1.00;;
673;SDS011;319;48.764;9.174;2022-07-05T05:05:51;1.10;;;1.10;;
673;SDS011;319;48.764;9.174;2022-07-05T05:08:19;1.90;;;1.90;;
673;SDS011;319;48.764;9.174;2022-07-05T05:10:46;3.27;;;3.17;;
673;SDS011;319;48.764;9.174;2022-07-05T05:13:13;7.70;;;7.50;;
673;SDS011;319;48.764;9.174;2022-07-05T05:15:39;8.90;;;8.70;;
673;SDS011;319;48.764;9.174;2022-07-05T05:18:06;7.63;;;7.43;;
673;SDS011;319;48.764;9.174;2022-07-05T05:20:33;8.43;;;8.23;;
673;SDS011;319;48.764;9.174;2022-07-05T05:22:59;10.53;;;10.23;;
673;SDS011;319;48.764;9.174;2022-07-05T05:25:28;9.10;;;8.90;;
673;SDS011;319;48.764;9.174;2022-07-05T05:27:55;11.13;;;10.83;;
673;SDS011;319;48.764;9.174;2022-07-05T05:30:22;8.77;;;8.57;;
673;SDS011;319;48.764;9.174;2022-07-05T05:32:49;11.10;;;10.80;;
673;SDS011;319;48.764;9.174;2022-07-05T05:35:15;11.30;;;11.00;;
673;SDS011;319;48.764;9.174;2022-07-05T05:37:46;8.70;;;8.50;;
673;SDS011;319;48.764;9.174;2022-07-05T05:40:14;6.90;;;6.70;;
673;SDS011;319;48.764;9.174;2022-07-05T05:42:43;8.60;;;8.40;;
673;SDS011;319;48.764;9.174;2022-07-05T05:45:10;15.40;;;15.00;;
673;SDS011;319;48.764;9.174;2022-07-05T05:47:46;16.67;;;16.23;;
673;SDS011;319;48.764;9.174;2022-07-05T05:50:13;14.60;;;14.20;;
673;SDS011;319;48.764;9.174;2022-07-05T05:52:43;19.10;;;18.60;;
673;SDS011;319;48.764;9.174;2022-07-05T05:55:10;16.60;;;16.20;;
673;SDS011;319;48.764;9.174;2022-07-05T05:57:37;9.10;;;8.90;;
673;SDS011;319;48.764;9.174;2022-07-05T06:00:06;9.00;;;8.80;;
673;SDS011;319;48.764;9.174;2022-07-05T06:02:33;14.13;;;13.73;;
673;SDS011;319;48.764;9.174;2022-07-05T06:05:00;21.90;;;21.30;;
673;SDS011;319;48.764;9.174;2022-07-05T06:07:27;21.30;;;20.70;;
673;SDS011;319;48.764;9.174;2022-07-05T06:09:53;20.03;;;19.50;;
673;SDS011;319;48.764;9.174;2022-07-05T06:12:20;20.57;;;19.97;;
673;SDS011;319;48.764;9.174;2022-07-05T06:14:47;21.90;;;21.30;;
673;SDS011;319;48.764;9.174;2022-07-05T06:17:15;14.60;;;14.20;;
673;SDS011;319;48.764;9.174;2022-07-05T06:19:41;24.67;;;23.87;;
673;SDS011;319;48.764;9.174;2022-07-05T06:22:08;7.23;;;7.03;;
673;SDS011;319;48.764;9.174;2022-07-05T06:24:35;7.07;;;6.87;;
673;SDS011;319;48.764;9.174;2022-07-05T06:27:02;8.20;;;8.00;;
673;SDS011;319;48.764;9.174;2022-07-05T06:29:29;1.63;;;1.63;;
673;SDS011;319;48.764;9.174;2022-07-05T06:31:56;8.10;;;7.90;;
673;SDS011;319;48.764;9.174;2022-07-05T06:34:26;8.70;;;8.50;;
673;SDS011;319;48.764;9.174;2022-07-05T06:36:53;7.47;;;7.28;;
673;SDS011;319;48.764;9.174;2022-07-05T06:39:19;5.80;;;5.70;;
673;SDS011;319;48.764;9.174;2022-07-05T06:41:46;6.70;;;6.50;;
673;SDS011;319;48.764;9.174;2022-07-05T06:44:13;0.82;;;0.82;;
673;SDS011;319;48.764;9.174;2022-07-05T06:46:39;3.65;;;3.55;;
673;SDS011;319;48.764;9.174;2022-07-05T06:49:06;5.40;;;5.30;;
673;SDS011;319;48.764;9.174;2022-07-05T06:51:34;4.20;;;4.10;;
673;SDS011;319;48.764;9.174;2022-07-05T06:54:01;4.75;;;4.65;;
673;SDS011;319;48.764;9.174;2022-07-05T06:56:28;0.70;;;0.70;;
673;SDS011;319;48.764;9.174;2022-07-05T06:58:55;0.70;;;0.70;;
673;SDS011;319;48.764;9.174;2022-07-05T07:01:22;0.70;;;0.70;;
673;SDS011;319;48.764;9.174;2022-07-05T07:03:49;0.70;;;0.70;;
673;SDS011;319;48.764;9.174;2022-07-05T07:06:16;0.80;;;0.80;;
673;SDS011;319;48.764;9.174;2022-07-05T07:08:44;2.60;;;2.58;;
673;SDS011;319;48.764;9.174;2022-07-05T07:11:28;0.70;;;0.70;;
673;SDS011;319;48.764;9.174;2022-07-05T07:13:55;0.70;;;0.70;;
673;SDS011;319;48.764;9.174;2022-07-05T07:16:22;0.70;;;0.70;;
673;SDS011;319;48.764;9.174;2022-07-05T07:18:49;0.70;;;0.70;;
673;SDS011;319;48.764;9.174;2022-07-05T07:21:16;0.70;;;0.70;;
673;SDS011;319;48.764;9.174;2022-07-05T07:23:44;0.60;;;0.60;;
673;SDS011;319;48.764;9.174;2022-07-05T07:26:11;0.63;;;0.63;;
673;SDS011;319;48.764;9.174;2022-07-05T07:31:18;0.70;;;0.70;;
673;SDS011;319;48.764;9.174;2022-07-05T07:33:45;0.70;;;0.70;;
673;SDS011;319;48.764;9.174;2022-07-05T07:36:12;0.70;;;0.70;;
673;SDS011;319;48.764;9.174;2022-07-05T07:38:39;0.70;;;0.70;;
673;SDS011;319;48.764;9.174;2022-07-05T07:41:07;0.60;;;0.60;;
673;SDS011;319;48.764;9.174;2022-07-05T07:43:33;0.70;;;0.70;;
673;SDS011;319;48.764;9.174;2022-07-05T07:46:00;0.70;;;0.70;;
673;SDS011;319;48.764;9.174;2022-07-05T07:48:27;0.70;;;0.70;;
673;SDS011;319;48.764;9.174;2022-07-05T07:50:54;0.70;;;0.70;;
673;SDS011;319;48.764;9.174;2022-07-05T07:53:21;0.70;;;0.70;;
673;SDS011;319;48.764;9.174;2022-07-05T07:55:48;0.65;;;0.65;;
673;SDS011;319;48.764;9.174;2022-07-05T07:58:16;0.70;;;0.70;;
673;SDS011;319;48.764;9.174;2022-07-05T08:00:42;0.70;;;0.70;;
673;SDS011;319;48.764;9.174;2022-07-05T08:03:09;0.70;;;0.70;;
673;SDS011;319;48.764;9.174;2022-07-05T08:05:36;0.70;;;0.70;;
673;SDS011;319;48.764;9.174;2022-07-05T08:08:03;0.70;;;0.70;;
673;SDS011;319;48.764;9.174;2022-07-05T08:10:31;0.70;;;0.70;;
673;SDS011;319;48.764;9.174;2022-07-05T08:12:57;0.70;;;0.70;;
673;SDS011;319;48.764;9.174;2022-07-05T08:15:25;0.70;;;0.70;;
673;SDS011;319;48.764;9.174;2022-07-05T08:17:52;0.60;;;0.60;;
673;SDS011;319;48.764;9.174;2022-07-05T08:20:36;0.70;;;0.70;;
673;SDS011;319;48.764;9.174;2022-07-05T08:23:21;0.70;;;0.70;;
673;SDS011;319;48.764;9.174;2022-07-05T08:25:48;0.70;;;0.70;;
673;SDS011;319;48.764;9.174;2022-07-05T08:28:14;0.60;;;0.60;;
673;SDS011;319;48.764;9.174;2022-07-05T08:30:42;0.60;;;0.60;;
673;SDS011;319;48.764;9.174;2022-07-05T08:33:09;0.65;;;0.65;;
673;SDS011;319;48.764;9.174;2022-07-05T08:35:36;0.80;;;0.80;;
673;SDS011;319;48.764;9.174;2022-07-05T08:38:03;0.70;;;0.70;;
673;SDS011;319;48.764;9.174;2022-07-05T08:40:29;0.60;;;0.60;;
673;SDS011;319;48.764;9.174;2022-07-05T08:43:03;0.70;;;0.70;;
673;SDS011;319;48.764;9.174;2022-07-05T08:45:32;0.70;;;0.70;;
673;SDS011;319;48.764;9.174;2022-07-05T08:48:01;0.60;;;0.60;;
673;SDS011;319;48.764;9.174;2022-07-05T08:50:29;0.70;;;0.70;;
673;SDS011;319;48.764;9.174;2022-07-05T08:52:57;0.70;;;0.70;;
673;SDS011;319;48.764;9.174;2022-07-05T08:55:25;0.70;;;0.70;;
673;SDS011;319;48.764;9.174;2022-07-05T08:57:52;0.80;;;0.80;;
673;SDS011;319;48.764;9.174;2022-07-05T09:00:20;0.70;;;0.70;;
673;SDS011;319;48.764;9.174;2022-07-05T09:02:46;0.70;;;0.70;;
673;SDS011;319;48.764;9.174;2022-07-05T09:05:15;0.70;;;0.70;;
673;SDS011;319;48.764;9.174;2022-07-05T09:07:48;0.70;;;0.70;;
673;SDS011;319;48.764;9.174;2022-07-05T09:10:24;0.70;;;0.70;;
673;SDS011;319;48.764;9.174;2022-07-05T09:12:52;0.70;;;0.70;;
673;SDS011;319;48.764;9.174;2022-07-05T09:15:19;0.60;;;0.60;;
673;SDS011;319;48.764;9.174;2022-07-05T09:17:46;0.70;;;0.70;;
673;SDS011;319;48.764;9.174;2022-07-05T09:20:14;0.60;;;0.60;;
673;SDS011;319;48.764;9.174;2022-07-05T09:22:47;0.70;;;0.70;;
673;SDS011;319;48.764;9.174;2022-07-05T09:25:18;0.70;;;0.70;;
673;SDS011;319;48.764;9.174;2022-07-05T09:27:47;0.70;;;0.70;;
673;SDS011;319;48.764;9.174;2022-07-05T09:30:23;0.60;;;0.60;;
673;SDS011;319;48.764;9.174;2022-07-05T09:33:05;10.70;;;10.40;;
673;SDS011;319;48.764;9.174;2022-07-05T09:35:36;10.77;;;10.47;;
673;SDS011;319;48.764;9.174;2022-07-05T09:38:04;11.33;;;11.03;;
673;SDS011;319;48.764;9.174;2022-07-05T09:40:32;10.43;;;10.13;;
673;SDS011;319;48.764;9.174;2022-07-05T09:43:11;9.87;;;9.60;;
673;SDS011;319;48.764;9.174;2022-07-05T09:45:39;7.47;;;7.27;;
673;SDS011;319;48.764;9.174;2022-07-05T09:48:06;11.33;;;11.03;;
673;SDS011;319;48.764;9.174;2022-07-05T09:50:35;8.60;;;8.40;;
673;SDS011;319;48.764;9.174;2022-07-05T09:53:03;11.40;;;11.10;;
673;SDS011;319;48.764;9.174;2022-07-05T09:55:30;6.97;;;6.77;;
673;SDS011;319;48.764;9.174;2022-07-05T09:57:58;10.67;;;10.37;;
673;SDS011;319;48.764;9.174;2022-07-05T10:00:24;10.40;;;10.10;;
673;SDS011;319;48.764;9.174;2022-07-05T10:02:52;10.90;;;10.60;;
673;SDS011;319;48.764;9.174;2022-07-05T10:05:26;11.17;;;10.87;;
673;SDS011;319;48.764;9.174;2022-07-05T10:07:56;9.80;;;9.60;;
673;SDS011;319;48.764;9.174;2022-07-05T10:10:25;11.50;;;11.20;;
673;SDS011;319;48.764;9.174;2022-07-05T10:12:53;10.90;;;10.60;;
673;SDS011;319;48.764;9.174;2022-07-05T10:15:24;10.27;;;9.97;;
673;SDS011;319;48.764;9.174;2022-07-05T10:17:52;9.03;;;8.83;;
673;SDS011;319;48.764;9.174;2022-07-05T10:20:24;11.73;;;11.43;;
673;SDS011;319;48.764;9.174;2022-07-05T10:22:55;9.77;;;9.53;;
673;SDS011;319;48.764;9.174;2022-07-05T10:25:23;11.80;;;11.50;;
673;SDS011;319;48.764;9.174;2022-07-05T10:27:54;12.03;;;11.73;;
673;SDS011;319;48.764;9.174;2022-07-05T10:30:21;6.97;;;6.77;;
673;SDS011;319;48.764;9.174;2022-07-05T10:32:49;10.13;;;9.83;;
673;SDS011;319;48.764;9.174;2022-07-05T10:35:16;11.43;;;11.13;;
673;SDS011;319;48.764;9.174;2022-07-05T10:37:44;12.13;;;11.83;;
673;SDS011;319;48.764;9.174;2022-07-05T10:40:14;9.80;;;9.57;;
673;SDS011;319;48.764;9.174;2022-07-05T10:42:42;10.47;;;10.17;;
673;SDS011;319;48.764;9.174;2022-07-05T10:45:24;11.93;;;11.63;;
673;SDS011;319;48.764;9.174;2022-07-05T10:50:48;11.00;;;10.70;;
673;SDS011;319;48.764;9.174;2022-07-05T10:53:16;12.50;;;12.20;;
673;SDS011;319;48.764;9.174;2022-07-05T10:55:50;11.90;;;11.60;;
673;SDS011;319;48.764;9.174;2022-07-05T10:58:25;9.60;;;9.40;;
673;SDS011;319;48.764;9.174;2022-07-05T11:04:11;11.70;;;11.40;;
673;SDS011;319;48.764;9.174;2022-07-05T11:07:00;10.53;;;10.23;;
673;SDS011;319;48.764;9.174;2022-07-05T11:09:27;11.37;;;11.07;;
673;SDS011;319;48.764;9.174;2022-07-05T11:12:03;11.60;;;11.30;;
673;SDS011;319;48.764;9.174;2022-07-05T11:17:20;11.23;;;10.93;;
673;SDS011;319;48.764;9.174;2022-07-05T11:20:04;10.37;;;10.07;;
673;SDS011;319;48.764;9.174;2022-07-05T11:22:36;10.43;;;10.13;;
673;SDS011;319;48.764;9.174;2022-07-05T11:25:06;11.37;;;11.07;;
673;SDS011;319;48.764;9.174;2022-07-05T11:27:36;10.80;;;10.50;;
673;SDS011;319;48.764;9.174;2022-07-05T11:30:27;9.07;;;8.87;;
673;SDS011;319;48.764;9.174;2022-07-05T11:32:53;11.60;;;11.30;;
673;SDS011;319;48.764;9.174;2022-07-05T11:35:20;11.33;;;11.03;;
673;SDS011;319;48.764;9.174;2022-07-05T11:38:03;11.43;;;11.13;;
673;SDS011;319;48.764;9.174;2022-07-05T11:40:32;9.47;;;9.27;;
673;SDS011;319;48.764;9.174;2022-07-05T11:43:02;11.73;;;11.43;;
673;SDS011;319;48.764;9.174;2022-07-05T11:45:32;11.63;;;11.33;;
673;SDS011;319;48.764;9.174;2022-07-05T11:47:59;11.40;;;11.10;;
673;SDS011;319;48.764;9.174;2022-07-05T11:50:29;8.93;;;8.73;;
673;SDS011;319;48.764;9.174;2022-07-05T11:52:57;11.10;;;10.80;;
673;SDS011;319;48.764;9.174;2022-07-05T11:55:25;10.93;;;10.63;;
673;SDS011;319;48.764;9.174;2022-07-05T11:57:54;10.87;;;10.57;;
673;SDS011;319;48.764;9.174;2022-07-05T12:00:27;8.67;;;8.47;;
673;SDS011;319;48.764;9.174;2022-07-05T12:02:55;11.67;;;11.37;;
673;SDS011;319;48.764;9.174;2022-07-05T12:05:22;11.50;;;11.20;;
673;SDS011;319;48.764;9.174;2022-07-05T12:07:49;9.27;;;9.07;;
673;SDS011;319;48.764;9.174;2022-07-05T12:10:17;10.70;;;10.40;;
673;SDS011;319;48.764;9.174;2022-07-05T12:13:04;10.83;;;10.53;;
673;SDS011;319;48.764;9.174;2022-07-05T12:15:33;10.23;;;9.93;;
673;SDS011;319;48.764;9.174;2022-07-05T12:18:03;10.83;;;10.53;;
673;SDS011;319;48.764;9.174;2022-07-05T12:20:32;10.67;;;10.37;;
673;SDS011;319;48.764;9.174;2022-07-05T12:23:00;10.67;;;10.37;;
673;SDS011;319;48.764;9.174;2022-07-05T12:25:28;10.50;;;10.20;;
673;SDS011;319;48.764;9.174;2022-07-05T12:27:57;9.00;;;8.80;;
673;SDS011;319;48.764;9.174;2022-07-05T12:30:27;9.90;;;9.63;;
673;SDS011;319;48.764;9.174;2022-07-05T12:33:00;12.07;;;11.77;;
673;SDS011;319;48.764;9.174;2022-07-05T12:35:29;10.67;;;10.37;;
673;SDS011;319;48.764;9.174;2022-07-05T12:38:04;10.07;;;9.77;;
673;SDS011;319;48.764;9.174;2022-07-05T12:40:33;8.87;;;8.67;;
673;SDS011;319;48.764;9.174;2022-07-05T12:43:04;9.17;;;8.97;;
673;SDS011;319;48.764;9.174;2022-07-05T12:45:32;10.20;;;9.90;;
673;SDS011;319;48.764;9.174;2022-07-05T12:48:01;9.17;;;8.97;;
673;SDS011;319;48.764;9.174;2022-07-05T12:50:30;8.60;;;8.40;;
673;SDS011;319;48.764;9.174;2022-07-05T12:53:10;9.50;;;9.30;;
673;SDS011;319;48.764;9.174;2022-07-05T12:55:57;9.90;;;9.60;;
673;SDS011;319;48.764;9.174;2022-07-05T12:58:49;10.10;;;9.80;;
673;SDS011;319;48.764;9.174;2022-07-05T13:01:20;10.10;;;9.80;;
673;SDS011;319;48.764;9.174;2022-07-05T13:04:05;9.57;;;9.37;;
673;SDS011;319;48.764;9.174;2022-07-05T13:06:47;10.60;;;10.30;;
673;SDS011;319;48.764;9.174;2022-07-05T13:09:16;8.80;;;8.60;;
673;SDS011;319;48.764;9.174;2022-07-05T13:12:04;9.83;;;9.60;;
673;SDS011;319;48.764;9.174;2022-07-05T13:14:34;9.50;;;9.30;;
673;SDS011;319;48.764;9.174;2022-07-05T13:17:02;8.00;;;7.80;;
673;SDS011;319;48.764;9.174;2022-07-05T13:19:31;8.27;;;8.07;;
673;SDS011;319;48.764;9.174;2022-07-05T13:21:57;9.47;;;9.27;;
673;SDS011;319;48.764;9.174;2022-07-05T13:24:24;7.90;;;7.70;;
673;SDS011;319;48.764;9.174;2022-07-05T13:26:51;9.13;;;8.93;;
673;SDS011;319;48.764;9.174;2022-07-05T13:29:18;7.87;;;7.67;;
673;SDS011;319;48.764;9.174;2022-07-05T13:31:45;8.00;;;7.80;;
673;SDS011;319;48.764;9.174;2022-07-05T13:34:12;7.57;;;7.37;;
673;SDS011;319;48.764;9.174;2022-07-05T13:36:40;8.33;;;8.13;;
673;SDS011;319;48.764;9.174;2022-07-05T13:39:07;7.77;;;7.57;;
673;SDS011;319;48.764;9.174;2022-07-05T13:41:34;9.23;;;9.03;;
673;SDS011;319;48.764;9.174;2022-07-05T13:44:00;8.53;;;8.33;;
673;SDS011;319;48.764;9.174;2022-07-05T13:46:30;9.70;;;9.50;;
673;SDS011;319;48.764;9.174;2022-07-05T13:48:57;9.30;;;9.10;;
673;SDS011;319;48.764;9.174;2022-07-05T13:51:24;7.97;;;7.77;;
673;SDS011;319;48.764;9.174;2022-07-05T13:53:52;8.43;;;8.23;;
673;SDS011;319;48.764;9.174;2022-07-05T13:56:19;8.40;;;8.20;;
673;SDS011;319;48.764;9.174;2022-07-05T13:58:46;9.13;;;8.93;;
673;SDS011;319;48.764;9.174;2022-07-05T14:01:13;8.17;;;7.97;;
673;SDS011;319;48.764;9.174;2022-07-05T14:03:40;8.90;;;8.70;;
673;SDS011;319;48.764;9.174;2022-07-05T14:06:06;9.20;;;9.00;;
673;SDS011;319;48.764;9.174;2022-07-05T14:08:33;8.07;;;7.87;;
673;SDS011;319;48.764;9.174;2022-07-05T14:11:01;7.30;;;7.10;;
673;SDS011;319;48.764;9.174;2022-07-05T14:13:28;9.07;;;8.87;;
673;SDS011;319;48.764;9.174;2022-07-05T14:15:55;8.90;;;8.70;;
673;SDS011;319;48.764;9.174;2022-07-05T14:18:22;8.70;;;8.50;;
673;SDS011;319;48.764;9.174;2022-07-05T14:20:50;9.10;;;8.90;;
673;SDS011;319;48.764;9.174;2022-07-05T14:23:17;9.37;;;9.17;;
673;SDS011;319;48.764;9.174;2022-07-05T14:25:45;10.63;;;10.33;;
673;SDS011;319;48.764;9.174;2022-07-05T14:28:13;8.50;;;8.30;;
673;SDS011;319;48.764;9.174;2022-07-05T14:30:41;9.43;;;9.23;;
673;SDS011;319;48.764;9.174;2022-07-05T14:33:09;9.10;;;8.90;;
673;SDS011;319;48.764;9.174;2022-07-05T14:35:36;8.40;;;8.20;;
673;SDS011;319;48.764;9.174;2022-07-05T14:38:04;10.23;;;9.93;;
673;SDS011;319;48.764;9.174;2022-07-05T14:40:31;8.40;;;8.20;;
673;SDS011;319;48.764;9.174;2022-07-05T14:42:58;8.17;;;7.97;;
673;SDS011;319;48.764;9.174;2022-07-05T14:45:28;10.27;;;9.97;;
673;SDS011;319;48.764;9.174;2022-07-05T14:47:55;9.27;;;9.07;;
673;SDS011;319;48.764;9.174;2022-07-05T14:50:22;7.73;;;7.53;;
673;SDS011;319;48.764;9.174;2022-07-05T14:52:49;8.20;;;8.00;;
673;SDS011;319;48.764;9.174;2022-07-05T14:55:17;9.70;;;9.50;;
673;SDS011;319;48.764;9.174;2022-07-05T14:57:44;9.20;;;9.00;;
673;SDS011;319;48.764;9.174;2022-07-05T15:00:12;8.23;;;8.03;;
673;SDS011;319;48.764;9.174;2022-07-05T15:02:42;9.00;;;8.80;;
673;SDS011;319;48.764;9.174;2022-07-05T15:05:09;9.40;;;9.20;;
673;SDS011;319;48.764;9.174;2022-07-05T15:07:37;10.60;;;10.30;;
673;SDS011;319;48.764;9.174;2022-07-05T15:10:05;7.83;;;7.63;;
673;SDS011;319;48.764;9.174;2022-07-05T15:12:34;9.47;;;9.27;;
673;SDS011;319;48.764;9.174;2022-07-05T15:15:01;10.50;;;10.20;;
673;SDS011;319;48.764;9.174;2022-07-05T15:17:29;10.90;;;10.60;;
673;SDS011;319;48.764;9.174;2022-07-05T15:19:58;9.47;;;9.27;;
673;SDS011;319;48.764;9.174;2022-07-05T15:22:25;10.00;;;9.70;;
673;SDS011;319;48.764;9.174;2022-07-05T15:24:52;10.60;;;10.30;;
673;SDS011;319;48.764;9.174;2022-07-05T15:27:20;10.10;;;9.80;;
673;SDS011;319;48.764;9.174;2022-07-05T15:29:46;9.50;;;9.30;;
673;SDS011;319;48.764;9.174;2022-07-05T15:32:13;11.00;;;10.70;;
673;SDS011;319;48.764;9.174;2022-07-05T15:34:40;9.87;;;9.60;;
673;SDS011;319;48.764;9.174;2022-07-05T15:37:08;11.90;;;11.60;;
673;SDS011;319;48.764;9.174;2022-07-05T15:39:35;9.70;;;9.50;;
673;SDS011;319;48.764;9.174;2022-07-05T15:42:02;10.33;;;10.03;;
673;SDS011;319;48.764;9.174;2022-07-05T15:44:30;10.67;;;10.37;;
673;SDS011;319;48.764;9.174;2022-07-05T15:46:57;10.30;;;10.00;;
673;SDS011;319;48.764;9.174;2022-07-05T15:49:29;11.10;;;10.80;;
673;SDS011;319;48.764;9.174;2022-07-05T15:51:56;11.20;;;10.90;;
673;SDS011;319;48.764;9.174;2022-07-05T15:54:25;11.10;;;10.80;;
673;SDS011;319;48.764;9.174;2022-07-05T15:56:53;11.70;;;11.40;;